Time;durP1;ratioP1;P1;durP2;ratioP2;P2;SDS_P1;SDS_P2;PMS_P1;PMS_P2;Temp;Humidity;BMP_temperature;BMP_pressure;BME280_temperature;BME280_humidity;BME280_pressure;Samples;Min_cycle;Max_cycle;Signal;HPM_P1;HPM_P2
2021/01/25 00:01:27;;;;;;;4.27;2.30;;;2.60;73.20;;;;;;4898163;29;20024;-75
2021/01/25 00:03:52;;;;;;;7.83;2.53;;;2.60;73.20;;;;;;4881809;29;20506;-74
2021/01/25 00:06:18;;;;;;;5.30;2.73;;;2.60;74.00;;;;;;4898414;29;20482;-74
2021/01/25 00:08:43;;;;;;;7.40;3.17;;;2.70;73.80;;;;;;4881299;29;20080;-74
2021/01/25 00:11:09;;;;;;;4.83;2.40;;;2.60;73.90;;;;;;4898269;29;20036;-74
2021/01/25 00:13:34;;;;;;;4.77;2.20;;;2.60;74.20;;;;;;4881123;29;20028;-74
2021/01/25 00:16:00;;;;;;;6.30;2.70;;;2.60;74.90;;;;;;4898508;29;20550;-74
2021/01/25 00:18:26;;;;;;;4.47;2.57;;;2.60;74.60;;;;;;4881316;29;20032;-74
2021/01/25 00:20:51;;;;;;;5.67;2.37;;;2.50;74.40;;;;;;4897816;29;20467;-74
2021/01/25 00:23:17;;;;;;;5.63;2.23;;;2.60;74.70;;;;;;4881071;29;20052;-74
2021/01/25 00:25:42;;;;;;;4.83;2.30;;;2.50;74.20;;;;;;4880812;29;20101;-74
2021/01/25 00:28:08;;;;;;;4.00;2.27;;;2.50;74.70;;;;;;4898186;29;20505;-72
2021/01/25 00:30:34;;;;;;;3.97;2.40;;;2.50;74.70;;;;;;4880881;29;20499;-73
2021/01/25 00:32:59;;;;;;;4.07;2.50;;;2.50;74.20;;;;;;4895401;29;20135;-72
2021/01/25 00:35:25;;;;;;;4.33;2.33;;;2.60;74.90;;;;;;4862650;29;20033;-73
2021/01/25 00:37:50;;;;;;;4.20;2.33;;;2.60;74.60;;;;;;4862176;29;20439;-72
2021/01/25 00:40:16;;;;;;;5.83;2.63;;;2.60;74.50;;;;;;4862696;29;20049;-73
2021/01/25 00:42:42;;;;;;;4.83;2.57;;;2.60;74.60;;;;;;4878934;29;20144;-73
2021/01/25 00:45:08;;;;;;;4.70;2.63;;;2.60;74.30;;;;;;4879613;29;20029;-73
2021/01/25 00:47:34;;;;;;;4.93;2.70;;;2.60;74.40;;;;;;4861962;29;20389;-74
2021/01/25 00:50:00;;;;;;;7.73;3.00;;;2.50;74.50;;;;;;4862099;29;20033;-73
2021/01/25 00:52:25;;;;;;;3.63;2.40;;;2.50;74.40;;;;;;4862465;29;20101;-73
2021/01/25 00:54:51;;;;;;;6.80;3.03;;;2.60;74.50;;;;;;4861872;29;20473;-73
2021/01/25 00:57:17;;;;;;;5.30;2.70;;;2.60;74.60;;;;;;4878828;29;20200;-73
2021/01/25 00:59:43;;;;;;;4.13;2.40;;;2.50;74.80;;;;;;4878409;29;20069;-73
2021/01/25 01:02:09;;;;;;;4.17;2.40;;;2.60;74.70;;;;;;4862437;29;20029;-74
2021/01/25 01:04:35;;;;;;;4.70;2.50;;;2.60;74.70;;;;;;4861964;29;20033;-74
2021/01/25 01:07:02;;;;;;;5.13;2.40;;;2.70;74.60;;;;;;4861948;29;20497;-74
2021/01/25 01:09:27;;;;;;;5.73;2.20;;;2.70;73.90;;;;;;4862290;29;20093;-74
2021/01/25 01:11:53;;;;;;;4.47;2.40;;;2.70;74.00;;;;;;4861415;29;20519;-74
2021/01/25 01:14:19;;;;;;;6.43;2.37;;;2.60;74.20;;;;;;4862104;29;20058;-73
2021/01/25 01:16:45;;;;;;;4.43;2.30;;;2.60;74.30;;;;;;4861522;29;20033;-73
2021/01/25 01:19:10;;;;;;;5.37;2.63;;;2.50;74.30;;;;;;4861940;29;20037;-73
2021/01/25 01:21:36;;;;;;;6.07;2.50;;;2.50;74.80;;;;;;4861316;29;20040;-73
2021/01/25 01:24:03;;;;;;;4.83;2.60;;;2.50;74.50;;;;;;4862098;29;20040;-73
2021/01/25 01:26:29;;;;;;;7.13;2.57;;;2.50;74.30;;;;;;4878636;29;20041;-73
2021/01/25 01:28:54;;;;;;;6.47;2.90;;;2.40;74.50;;;;;;4878107;29;20498;-73
2021/01/25 01:31:20;;;;;;;6.00;2.43;;;2.50;74.50;;;;;;4861951;29;20029;-73
2021/01/25 01:33:46;;;;;;;3.37;2.20;;;2.50;74.00;;;;;;4878188;29;20036;-73
2021/01/25 01:36:11;;;;;;;4.97;2.63;;;2.60;74.20;;;;;;4862160;29;20036;-73
2021/01/25 01:38:38;;;;;;;6.10;2.33;;;2.50;73.90;;;;;;4861671;29;20060;-73
2021/01/25 01:41:04;;;;;;;6.10;2.70;;;2.60;74.00;;;;;;4862073;29;20387;-73
2021/01/25 01:43:31;;;;;;;3.97;2.33;;;2.60;74.10;;;;;;4878857;29;20037;-72
2021/01/25 01:45:56;;;;;;;5.37;2.17;;;2.60;74.20;;;;;;4861490;29;20519;-73
2021/01/25 01:48:23;;;;;;;3.90;2.20;;;2.50;74.30;;;;;;4862012;29;20064;-73
2021/01/25 01:50:49;;;;;;;7.23;2.70;;;2.50;74.50;;;;;;4861347;29;20467;-73
2021/01/25 01:53:15;;;;;;;3.83;2.40;;;2.50;74.50;;;;;;4878598;29;20034;-73
2021/01/25 01:55:42;;;;;;;5.60;2.23;;;2.50;74.60;;;;;;4878062;29;20044;-73
2021/01/25 01:58:10;;;;;;;6.90;2.73;;;2.50;74.60;;;;;;4861826;29;20061;-73
2021/01/25 02:00:35;;;;;;;6.07;2.87;;;2.50;75.20;;;;;;4861320;29;20025;-74
2021/01/25 02:03:01;;;;;;;8.00;3.20;;;2.50;75.60;;;;;;4861547;29;20523;-73
2021/01/25 02:05:27;;;;;;;6.60;2.90;;;2.50;75.60;;;;;;4878325;29;20033;-73
2021/01/25 02:07:55;;;;;;;4.53;2.30;;;2.60;76.10;;;;;;4861446;29;20036;-73
2021/01/25 02:10:22;;;;;;;8.40;2.47;;;2.50;75.80;;;;;;4865298;29;20025;-73
2021/01/25 02:12:56;;;;;;;5.53;2.50;;;2.50;76.20;;;;;;4864590;29;20069;-73
2021/01/25 02:15:23;;;;;;;4.43;2.43;;;2.50;76.30;;;;;;4865047;29;20108;-73
2021/01/25 02:17:49;;;;;;;7.37;2.93;;;2.50;76.20;;;;;;4864501;29;20558;-73
2021/01/25 02:20:33;;;;;;;3.43;2.50;;;2.50;75.90;;;;;;4865120;29;20390;-72
2021/01/25 02:23:18;;;;;;;5.37;2.53;;;2.50;76.10;;;;;;4864380;29;20105;-73
2021/01/25 02:26:29;;;;;;;6.60;3.00;;;2.50;76.40;;;;;;4881254;29;20039;-73
2021/01/25 02:28:55;;;;;;;4.77;2.67;;;2.40;76.40;;;;;;4805296;29;20047;-73
2021/01/25 02:31:22;;;;;;;7.60;2.53;;;2.40;76.60;;;;;;4849575;29;20037;-73
2021/01/25 02:33:54;;;;;;;5.50;3.00;;;2.40;76.40;;;;;;4864156;29;20069;-73
2021/01/25 02:36:20;;;;;;;;;;;2.40;76.70;;;;;;4865457;29;20048;-73
2021/01/25 02:38:49;;;;;;;7.23;2.53;;;2.40;76.50;;;;;;4864260;29;19931;-73
2021/01/25 02:41:16;;;;;;;4.80;2.43;;;2.40;77.10;;;;;;4881328;29;20084;-73
2021/01/25 02:43:43;;;;;;;5.13;2.60;;;2.40;77.50;;;;;;4880801;29;20029;-73
2021/01/25 02:46:10;;;;;;;6.37;2.80;;;2.40;77.80;;;;;;4881143;29;20115;-73
2021/01/25 02:48:36;;;;;;;5.67;2.70;;;2.30;78.10;;;;;;4880735;29;20033;-78
2021/01/25 02:51:03;;;;;;;4.97;2.60;;;2.30;78.50;;;;;;4880881;29;20033;-73
2021/01/25 02:53:29;;;;;;;7.17;2.83;;;2.30;78.70;;;;;;4864429;29;20056;-73
2021/01/25 02:55:56;;;;;;;6.10;3.07;;;2.30;78.90;;;;;;4880662;29;20064;-73
2021/01/25 02:58:23;;;;;;;4.93;2.50;;;2.30;79.50;;;;;;4864271;29;20028;-73
2021/01/25 03:00:49;;;;;;;4.87;2.60;;;2.30;79.80;;;;;;4880461;29;20025;-73
2021/01/25 03:03:19;;;;;;;4.30;2.80;;;2.40;80.10;;;;;;4880900;29;20095;-72
2021/01/25 03:05:45;;;;;;;3.93;2.40;;;2.40;80.30;;;;;;4880146;29;20044;-74
2021/01/25 03:08:11;;;;;;;7.13;2.67;;;2.40;80.60;;;;;;4880964;29;20116;-73
2021/01/25 03:10:37;;;;;;;4.10;2.27;;;2.40;80.70;;;;;;4880813;29;20062;-73
2021/01/25 03:13:06;;;;;;;4.87;2.57;;;2.40;80.90;;;;;;4864336;29;20037;-74
2021/01/25 03:15:37;;;;;;;6.27;2.60;;;2.40;81.50;;;;;;4880914;29;20033;-74
2021/01/25 03:18:03;;;;;;;4.03;2.70;;;2.40;82.10;;;;;;4864212;29;20041;-73
2021/01/25 03:20:29;;;;;;;5.20;2.53;;;2.40;82.60;;;;;;4863749;29;20044;-74
2021/01/25 03:22:54;;;;;;;4.20;2.40;;;2.40;83.00;;;;;;4863155;29;20056;-74
2021/01/25 03:25:20;;;;;;;5.83;2.93;;;2.40;83.50;;;;;;4863939;29;20490;-73
2021/01/25 03:27:45;;;;;;;4.63;2.73;;;2.40;83.70;;;;;;4863643;29;20029;-74
2021/01/25 03:30:12;;;;;;;5.23;2.83;;;2.40;84.30;;;;;;4880709;29;20463;-73
2021/01/25 03:32:38;;;;;;;6.30;2.80;;;2.40;84.30;;;;;;4880944;29;20037;-73
2021/01/25 03:35:06;;;;;;;3.67;2.73;;;2.40;84.50;;;;;;4880616;29;20056;-73
2021/01/25 03:37:32;;;;;;;4.40;2.30;;;2.40;85.00;;;;;;4863533;29;20041;-73
2021/01/25 03:39:58;;;;;;;4.13;2.47;;;2.30;85.40;;;;;;4880333;29;20554;-74
2021/01/25 03:42:25;;;;;;;4.70;2.60;;;2.30;85.40;;;;;;4863638;29;20029;-74
2021/01/25 03:44:51;;;;;;;6.20;2.50;;;2.30;85.60;;;;;;4863022;29;20037;-74
2021/01/25 03:47:17;;;;;;;4.80;2.50;;;2.30;86.00;;;;;;4863293;29;20436;-74
2021/01/25 03:49:42;;;;;;;4.80;2.73;;;2.30;86.10;;;;;;4863050;29;20033;-74
2021/01/25 03:52:08;;;;;;;3.00;2.60;;;2.30;86.30;;;;;;4880494;29;20480;-74
2021/01/25 03:54:33;;;;;;;4.57;2.73;;;2.20;86.50;;;;;;4863417;29;20084;-73
2021/01/25 03:57:02;;;;;;;4.13;2.50;;;2.20;86.60;;;;;;4862892;29;20292;-73
2021/01/25 03:59:28;;;;;;;5.07;2.67;;;2.20;86.80;;;;;;4879973;29;20049;-74
2021/01/25 04:01:54;;;;;;;4.40;2.70;;;2.20;86.70;;;;;;4862553;29;20391;-74
2021/01/25 04:04:20;;;;;;;4.80;2.60;;;2.20;86.90;;;;;;4879843;29;20040;-73
2021/01/25 04:06:46;;;;;;;4.67;2.73;;;2.20;86.90;;;;;;4862568;29;20045;-74
2021/01/25 04:09:11;;;;;;;3.93;2.97;;;2.20;86.80;;;;;;4879801;29;20064;-73
2021/01/25 04:11:37;;;;;;;4.27;2.80;;;2.20;86.80;;;;;;4863038;29;20029;-73
2021/01/25 04:14:04;;;;;;;4.73;2.80;;;2.20;86.90;;;;;;4879211;29;20036;-74
2021/01/25 04:16:30;;;;;;;5.17;2.73;;;2.20;87.10;;;;;;4862682;29;20052;-73
2021/01/25 04:18:56;;;;;;;4.47;3.07;;;2.10;87.70;;;;;;4862271;29;20033;-74
2021/01/25 04:21:22;;;;;;;3.57;2.50;;;2.10;87.80;;;;;;4879601;29;20040;-74
2021/01/25 04:23:48;;;;;;;5.33;3.00;;;2.10;87.50;;;;;;4878687;29;20061;-74
2021/01/25 04:26:15;;;;;;;4.07;2.67;;;2.20;87.40;;;;;;4879350;29;20044;-74
2021/01/25 04:28:42;;;;;;;4.87;3.00;;;2.20;87.60;;;;;;4862777;29;20057;-74
2021/01/25 04:31:08;;;;;;;4.53;2.80;;;2.20;87.60;;;;;;4862258;29;20491;-74
2021/01/25 04:33:34;;;;;;;4.47;2.53;;;2.20;87.50;;;;;;4879479;29;20033;-74
2021/01/25 04:35:59;;;;;;;3.23;2.53;;;2.30;87.50;;;;;;4862171;29;20395;-74
2021/01/25 04:38:25;;;;;;;4.63;2.43;;;2.20;87.60;;;;;;4879495;29;20082;-74
2021/01/25 04:40:51;;;;;;;4.43;2.10;;;2.10;88.10;;;;;;4862181;29;20033;-74
2021/01/25 04:43:18;;;;;;;2.97;2.03;;;2.20;88.40;;;;;;4879310;29;20072;-74
2021/01/25 04:45:45;;;;;;;4.27;2.30;;;2.10;88.50;;;;;;4878787;29;20116;-74
2021/01/25 04:48:11;;;;;;;3.77;2.17;;;2.10;88.60;;;;;;4862357;29;20040;-74
2021/01/25 04:50:38;;;;;;;3.37;1.97;;;2.10;88.70;;;;;;4879426;29;20391;-74
2021/01/25 04:53:05;;;;;;;3.33;2.10;;;2.10;88.90;;;;;;4861955;29;20036;-74
2021/01/25 04:55:33;;;;;;;4.50;2.10;;;2.20;88.90;;;;;;4862417;29;20025;-74
2021/01/25 04:57:59;;;;;;;3.70;2.07;;;2.10;88.90;;;;;;4861963;29;20029;-74
2021/01/25 05:00:25;;;;;;;6.20;2.70;;;2.10;89.10;;;;;;4879318;29;20064;-73
2021/01/25 05:02:50;;;;;;;3.10;2.17;;;2.00;89.30;;;;;;4878249;29;20048;-73
2021/01/25 05:05:16;;;;;;;3.30;2.43;;;2.00;89.50;;;;;;4862259;29;20029;-73
2021/01/25 05:07:42;;;;;;;2.67;2.10;;;2.00;89.50;;;;;;4862140;29;20041;-73
2021/01/25 05:10:09;;;;;;;4.30;2.70;;;2.00;89.70;;;;;;4878443;29;20096;-73
2021/01/25 05:12:41;;;;;;;4.13;2.40;;;2.00;89.80;;;;;;4878879;29;20129;-73
2021/01/25 05:15:07;;;;;;;;;;;2.00;89.70;;;;;;4862169;29;20036;-73
2021/01/25 05:17:33;;;;;;;4.33;2.70;;;2.00;90.00;;;;;;4862102;29;19950;-73
2021/01/25 05:19:59;;;;;;;4.63;2.60;;;2.10;89.70;;;;;;4861721;29;20060;-73
2021/01/25 05:22:25;;;;;;;3.97;2.63;;;2.10;89.80;;;;;;4862057;29;20096;-73
2021/01/25 05:24:54;;;;;;;6.63;3.07;;;2.00;89.80;;;;;;4861666;29;20032;-73
2021/01/25 05:27:30;;;;;;;4.67;2.73;;;2.10;89.70;;;;;;4862015;29;20591;-73
2021/01/25 05:30:17;;;;;;;5.83;3.10;;;2.00;89.90;;;;;;4861866;29;20085;-73
2021/01/25 05:32:50;;;;;;;5.00;3.13;;;2.00;90.00;;;;;;4878666;29;20112;-74
2021/01/25 05:35:19;;;;;;;4.67;3.20;;;2.10;90.00;;;;;;4862192;29;20025;-74
2021/01/25 05:38:19;;;;;;;4.73;2.90;;;2.10;89.90;;;;;;4878701;29;20029;-74
2021/01/25 05:40:54;;;;;;;5.47;3.10;;;2.00;89.90;;;;;;4846006;29;20033;-73
2021/01/25 05:43:20;;;;;;;5.53;3.07;;;2.10;89.90;;;;;;4862822;29;20064;-74
2021/01/25 05:45:46;;;;;;;5.90;2.93;;;2.00;90.00;;;;;;4865546;29;20506;-74
2021/01/25 05:48:13;;;;;;;4.60;3.03;;;2.00;90.10;;;;;;4882375;29;20032;-73
2021/01/25 05:50:41;;;;;;;6.20;3.10;;;2.00;90.40;;;;;;4882023;29;20114;-73
2021/01/25 05:53:09;;;;;;;5.37;3.47;;;2.00;90.20;;;;;;4881588;29;20037;-73
2021/01/25 05:55:35;;;;;;;5.70;3.50;;;2.00;90.30;;;;;;4882304;29;20029;-73
2021/01/25 05:58:02;;;;;;;7.30;3.10;;;2.00;90.20;;;;;;4864922;29;20035;-73
2021/01/25 06:00:29;;;;;;;5.87;3.70;;;2.00;90.20;;;;;;4865422;29;20065;-73
2021/01/25 06:02:55;;;;;;;5.73;3.40;;;2.00;90.10;;;;;;4864998;29;20092;-73
2021/01/25 06:05:35;;;;;;;4.83;2.77;;;2.00;90.00;;;;;;4882092;29;20029;-73
2021/01/25 06:08:20;;;;;;;5.20;3.10;;;2.10;90.00;;;;;;4864811;29;20037;-73
2021/01/25 06:11:04;;;;;;;7.40;3.83;;;2.10;90.00;;;;;;4865353;29;20120;-73
2021/01/25 06:13:41;;;;;;;5.23;3.37;;;2.10;90.00;;;;;;4865384;29;20025;-73
2021/01/25 06:16:09;;;;;;;5.33;3.30;;;2.10;90.10;;;;;;4864715;29;20044;-73
2021/01/25 06:18:35;;;;;;;5.97;3.67;;;2.10;90.00;;;;;;4881849;29;20071;-73
2021/01/25 06:21:04;;;;;;;6.13;3.70;;;2.10;90.00;;;;;;4881347;29;20064;-73
2021/01/25 06:23:30;;;;;;;7.17;3.90;;;2.10;90.10;;;;;;4881723;29;20075;-73
2021/01/25 06:25:56;;;;;;;7.70;4.17;;;2.10;90.10;;;;;;4864400;29;20479;-73
2021/01/25 06:28:22;;;;;;;7.03;4.20;;;2.10;90.20;;;;;;4881746;29;20029;-73
2021/01/25 06:30:48;;;;;;;7.63;4.37;;;2.10;90.20;;;;;;4881391;29;20036;-73
2021/01/25 06:33:17;;;;;;;6.17;4.03;;;2.10;90.20;;;;;;4881926;29;20021;-75
2021/01/25 06:35:47;;;;;;;5.33;3.40;;;2.10;90.30;;;;;;4881597;29;20041;-74
2021/01/25 06:38:15;;;;;;;9.03;4.40;;;2.10;90.40;;;;;;4864257;29;20029;-74
2021/01/25 06:40:45;;;;;;;8.10;4.73;;;2.10;90.30;;;;;;4864699;29;20104;-74
2021/01/25 06:43:13;;;;;;;6.80;4.53;;;2.10;90.20;;;;;;4864111;29;20074;-74
2021/01/25 06:45:39;;;;;;;6.70;4.13;;;2.10;90.20;;;;;;4881223;29;20361;-74
2021/01/25 06:48:17;;;;;;;8.00;4.27;;;2.10;90.30;;;;;;4880703;29;20033;-75
2021/01/25 06:50:48;;;;;;;7.10;4.33;;;2.10;90.40;;;;;;4881234;29;20040;-72
2021/01/25 06:53:14;;;;;;;7.90;4.43;;;2.10;90.30;;;;;;4880450;29;20037;-73
2021/01/25 06:55:45;;;;;;;6.30;4.17;;;2.10;90.30;;;;;;4880716;29;20029;-72
2021/01/25 06:58:12;;;;;;;8.55;4.95;;;2.10;90.30;;;;;;4863909;29;20465;-72
2021/01/25 07:00:39;;;;;;;6.17;4.07;;;2.10;90.40;;;;;;4864474;29;20044;-71
2021/01/25 07:03:05;;;;;;;7.77;4.17;;;2.10;90.40;;;;;;4863619;29;20033;-73
2021/01/25 07:05:37;;;;;;;8.77;4.70;;;2.10;90.40;;;;;;4881005;29;20033;-72
2021/01/25 07:08:26;;;;;;;7.20;4.28;;;2.10;90.40;;;;;;4863743;29;20037;-72
2021/01/25 07:11:03;;;;;;;7.67;4.43;;;2.10;90.40;;;;;;4880424;29;20033;-79
2021/01/25 07:13:36;;;;;;;8.37;5.10;;;2.10;90.40;;;;;;4880829;29;20036;-72
2021/01/25 07:16:03;;;;;;;6.87;4.33;;;2.10;90.40;;;;;;4887486;29;20572;-73
2021/01/25 07:18:30;;;;;;;7.30;4.57;;;2.10;90.40;;;;;;4899240;29;20031;-72
2021/01/25 07:21:00;;;;;;;10.57;5.17;;;2.10;90.40;;;;;;4898675;29;20474;-75
2021/01/25 07:23:27;;;;;;;7.47;4.50;;;2.10;90.30;;;;;;4882175;29;20044;-73
2021/01/25 07:25:55;;;;;;;7.83;4.60;;;2.10;90.40;;;;;;4879028;29;20490;-72
2021/01/25 07:28:22;;;;;;;9.40;5.20;;;2.10;90.50;;;;;;4877781;29;20040;-72
2021/01/25 07:30:48;;;;;;;9.33;4.87;;;2.10;90.50;;;;;;4896658;29;20032;-72
2021/01/25 07:33:14;;;;;;;9.03;5.47;;;2.10;90.50;;;;;;4879519;29;20041;-73
2021/01/25 07:35:40;;;;;;;8.77;5.20;;;2.10;90.60;;;;;;4872682;29;20379;-75
2021/01/25 07:38:05;;;;;;;9.63;4.70;;;2.10;90.60;;;;;;4870046;29;20037;-72
2021/01/25 07:40:31;;;;;;;8.53;4.90;;;2.20;90.40;;;;;;4898433;29;20099;-74
2021/01/25 07:42:56;;;;;;;8.50;4.57;;;2.10;90.40;;;;;;4898272;29;20471;-75
2021/01/25 07:45:23;;;;;;;7.87;4.40;;;2.10;90.50;;;;;;4884776;29;20118;-73
2021/01/25 07:47:49;;;;;;;7.50;4.53;;;2.10;90.60;;;;;;4907208;29;20089;-72
2021/01/25 07:50:15;;;;;;;7.70;4.47;;;2.10;90.60;;;;;;4889086;29;20040;-72
2021/01/25 07:52:41;;;;;;;6.80;4.20;;;2.10;90.60;;;;;;4894621;29;20028;-73
2021/01/25 07:55:14;;;;;;;6.30;4.13;;;2.00;90.70;;;;;;4883543;29;20394;-74
2021/01/25 07:57:44;;;;;;;6.33;4.07;;;2.00;90.70;;;;;;4883293;29;20067;-73
2021/01/25 08:00:23;;;;;;;7.17;4.27;;;2.10;90.80;;;;;;4885678;29;20036;-73
2021/01/25 08:03:12;;;;;;;8.17;4.53;;;2.00;90.80;;;;;;4889204;29;20031;-73
2021/01/25 08:05:39;;;;;;;8.70;4.80;;;2.00;90.80;;;;;;4883697;29;20032;-72
2021/01/25 08:08:08;;;;;;;9.07;5.30;;;2.00;90.80;;;;;;4889189;29;20056;-74
2021/01/25 08:10:34;;;;;;;9.37;4.60;;;2.00;90.80;;;;;;4903147;29;20044;-75
2021/01/25 08:13:02;;;;;;;7.60;4.63;;;2.10;90.70;;;;;;4913745;29;20377;-73
2021/01/25 08:15:33;;;;;;;8.10;4.77;;;2.10;90.70;;;;;;4887806;29;20056;-73
2021/01/25 08:18:05;;;;;;;7.20;4.70;;;2.00;90.70;;;;;;4907350;29;20097;-73
2021/01/25 08:20:34;;;;;;;8.75;5.10;;;2.00;90.80;;;;;;4892738;29;20481;-73
2021/01/25 08:23:10;;;;;;;8.23;4.97;;;2.00;90.80;;;;;;4893629;29;20502;-72
2021/01/25 08:25:36;;;;;;;8.00;4.67;;;2.10;90.80;;;;;;4896227;29;20102;-73
2021/01/25 08:28:07;;;;;;;8.30;4.90;;;2.10;90.80;;;;;;4883974;29;20024;-74
2021/01/25 08:30:40;;;;;;;8.97;5.20;;;2.10;90.70;;;;;;4862809;29;20033;-72
2021/01/25 08:33:08;;;;;;;10.03;5.17;;;2.10;90.70;;;;;;4882455;29;20079;-73
2021/01/25 08:35:51;;;;;;;6.87;4.70;;;2.10;90.80;;;;;;4899501;29;20394;-72
2021/01/25 08:38:17;;;;;;;8.00;4.87;;;2.10;90.70;;;;;;4887519;29;20356;-72
2021/01/25 08:40:43;;;;;;;7.47;4.50;;;2.10;90.80;;;;;;4888402;29;20028;-72
2021/01/25 08:43:38;;;;;;;7.33;4.80;;;2.20;90.80;;;;;;4912618;29;20032;-73
2021/01/25 08:46:13;;;;;;;10.30;5.17;;;2.20;91.00;;;;;;4889532;29;20040;-74
2021/01/25 08:48:40;;;;;;;8.40;5.30;;;2.20;90.60;;;;;;4893274;29;20050;-73
2021/01/25 08:51:14;;;;;;;9.57;5.03;;;2.30;90.50;;;;;;4899338;29;20036;-74
2021/01/25 08:53:39;;;;;;;9.50;4.80;;;2.30;90.50;;;;;;4896492;29;20382;-73
2021/01/25 08:56:17;;;;;;;10.47;5.07;;;2.20;90.60;;;;;;4888981;29;20033;-74
2021/01/25 08:58:43;;;;;;;8.47;4.57;;;2.30;90.60;;;;;;4909659;29;20475;-72
2021/01/25 09:01:15;;;;;;;11.03;5.00;;;2.30;90.50;;;;;;4913193;29;20036;-75
2021/01/25 09:03:41;;;;;;;10.00;4.63;;;2.30;90.60;;;;;;4886070;29;20487;-73
2021/01/25 09:06:09;;;;;;;7.57;4.70;;;2.30;90.60;;;;;;4905378;29;20399;-74
2021/01/25 09:08:35;;;;;;;6.20;4.27;;;2.30;90.50;;;;;;4891074;29;20377;-74
2021/01/25 09:11:01;;;;;;;7.13;4.57;;;2.30;90.60;;;;;;4911515;29;20028;-73
2021/01/25 09:13:26;;;;;;;7.27;3.93;;;2.30;90.60;;;;;;4899809;29;20039;-72
2021/01/25 09:15:52;;;;;;;8.47;4.57;;;2.20;90.60;;;;;;4908170;29;20033;-72
2021/01/25 09:18:18;;;;;;;7.70;4.10;;;2.20;90.70;;;;;;4884343;29;20143;-72
2021/01/25 09:20:43;;;;;;;8.30;3.90;;;2.20;90.70;;;;;;4889277;29;20485;-72
2021/01/25 09:23:09;;;;;;;8.60;4.60;;;2.20;90.70;;;;;;4894557;29;20143;-72
2021/01/25 09:25:34;;;;;;;6.63;4.13;;;2.20;90.70;;;;;;4901103;29;20529;-71
2021/01/25 09:28:00;;;;;;;6.07;4.10;;;2.30;90.70;;;;;;4887389;29;20497;-72
2021/01/25 09:30:28;;;;;;;6.30;3.90;;;2.20;90.70;;;;;;4886191;29;20043;-73
2021/01/25 09:32:55;;;;;;;5.97;3.90;;;2.20;90.70;;;;;;4899124;29;20043;-73
2021/01/25 09:35:22;;;;;;;10.77;4.60;;;2.20;90.60;;;;;;4870609;29;20028;-74
2021/01/25 09:37:48;;;;;;;6.13;4.23;;;2.20;90.70;;;;;;4891005;29;20044;-73
2021/01/25 09:40:15;;;;;;;7.63;4.60;;;2.20;90.60;;;;;;4888578;29;20545;-73
2021/01/25 09:42:41;;;;;;;7.10;4.50;;;2.20;90.60;;;;;;4878415;29;20033;-73
2021/01/25 09:45:09;;;;;;;6.27;4.03;;;2.20;90.70;;;;;;4894444;29;20091;-71
2021/01/25 09:47:34;;;;;;;8.07;4.47;;;2.20;90.80;;;;;;4889724;29;20087;-72
2021/01/25 09:50:00;;;;;;;7.70;4.43;;;2.20;90.80;;;;;;4888501;29;20514;-73
2021/01/25 09:52:26;;;;;;;8.77;4.20;;;2.30;90.70;;;;;;4908156;29;20036;-72
2021/01/25 09:54:51;;;;;;;7.93;4.10;;;2.30;90.70;;;;;;4879842;29;20035;-73
2021/01/25 09:57:17;;;;;;;6.73;4.03;;;2.40;90.80;;;;;;4882249;29;20218;-73
2021/01/25 09:59:43;;;;;;;6.87;4.27;;;2.40;90.70;;;;;;4885866;29;20111;-72
2021/01/25 10:02:08;;;;;;;6.47;3.83;;;2.50;90.70;;;;;;4888303;29;20033;-74
2021/01/25 10:04:34;;;;;;;8.57;4.17;;;2.50;90.60;;;;;;4909199;29;20028;-74
2021/01/25 10:07:00;;;;;;;7.10;4.10;;;2.50;90.60;;;;;;4897829;29;20176;-73
2021/01/25 10:09:25;;;;;;;6.10;3.67;;;2.50;90.60;;;;;;4911172;29;20032;-73
2021/01/25 10:11:52;;;;;;;7.87;3.80;;;2.60;90.70;;;;;;4896236;29;20092;-74
2021/01/25 10:14:19;;;;;;;8.13;3.90;;;2.60;90.60;;;;;;4871695;29;20037;-74
2021/01/25 10:16:44;;;;;;;8.13;4.10;;;2.60;90.50;;;;;;4897501;29;20036;-73
2021/01/25 10:19:10;;;;;;;5.70;3.60;;;2.70;90.70;;;;;;4910990;29;20373;-73
2021/01/25 10:21:35;;;;;;;7.37;3.57;;;2.70;90.40;;;;;;4896583;29;20479;-73
2021/01/25 10:24:01;;;;;;;6.43;3.47;;;2.80;90.20;;;;;;4877203;29;20115;-74
2021/01/25 10:26:27;;;;;;;4.97;3.33;;;2.80;90.10;;;;;;4891000;29;20038;-74
2021/01/25 10:28:52;;;;;;;6.17;3.30;;;2.90;90.20;;;;;;4914789;29;20068;-73
2021/01/25 10:31:18;;;;;;;7.53;3.30;;;2.90;90.20;;;;;;4885291;29;20050;-73
2021/01/25 10:33:44;;;;;;;4.80;3.10;;;3.00;90.10;;;;;;4912257;29;20076;-73
2021/01/25 10:36:11;;;;;;;7.97;3.30;;;3.10;89.80;;;;;;4900686;29;20044;-74
2021/01/25 10:38:37;;;;;;;4.90;3.07;;;3.20;90.10;;;;;;4904922;29;20459;-74
2021/01/25 10:41:03;;;;;;;5.17;2.60;;;3.30;89.70;;;;;;4897567;29;20029;-74
2021/01/25 10:43:28;;;;;;;3.63;2.30;;;3.30;89.00;;;;;;4882563;29;20432;-74
2021/01/25 10:45:54;;;;;;;3.73;2.47;;;3.30;88.90;;;;;;4882641;29;20040;-76
2021/01/25 10:48:20;;;;;;;2.77;1.80;;;3.30;89.20;;;;;;4892917;29;20063;-74
2021/01/25 10:50:46;;;;;;;3.60;2.10;;;3.30;88.90;;;;;;4886347;29;20067;-73
2021/01/25 10:53:11;;;;;;;3.03;1.80;;;3.20;89.40;;;;;;4914463;29;20115;-74
2021/01/25 10:55:37;;;;;;;4.37;2.20;;;3.10;89.50;;;;;;4880084;29;20055;-73
2021/01/25 10:58:03;;;;;;;2.80;1.80;;;3.10;89.60;;;;;;4898551;29;20033;-72
2021/01/25 11:00:28;;;;;;;3.07;2.07;;;3.00;89.50;;;;;;4875232;29;20064;-70
2021/01/25 11:02:54;;;;;;;3.00;1.90;;;2.90;89.70;;;;;;4910754;29;20032;-71
2021/01/25 11:05:23;;;;;;;4.03;2.40;;;2.90;90.10;;;;;;4880021;29;20066;-71
2021/01/25 11:07:49;;;;;;;4.07;2.50;;;2.80;90.00;;;;;;4877093;29;20059;-72
2021/01/25 11:10:23;;;;;;;4.23;2.30;;;2.80;90.00;;;;;;4889198;29;20040;-72
2021/01/25 11:12:49;;;;;;;4.37;2.63;;;2.80;90.20;;;;;;4884213;29;20055;-75
2021/01/25 11:15:15;;;;;;;3.03;2.33;;;2.70;90.20;;;;;;4913301;29;20089;-71
2021/01/25 11:17:41;;;;;;;3.97;2.60;;;2.80;90.20;;;;;;4886705;29;20123;-72
2021/01/25 11:20:09;;;;;;;4.57;2.60;;;2.70;90.30;;;;;;4889119;29;20168;-72
2021/01/25 11:22:34;;;;;;;4.17;2.50;;;2.70;90.40;;;;;;4910625;29;20108;-71
2021/01/25 11:25:00;;;;;;;3.40;2.30;;;2.70;90.40;;;;;;4910183;29;20439;-70
2021/01/25 11:27:26;;;;;;;4.93;2.90;;;2.70;90.40;;;;;;4905936;29;20363;-72
2021/01/25 11:29:52;;;;;;;5.13;2.87;;;2.70;90.40;;;;;;4889044;29;20056;-72
2021/01/25 11:32:17;;;;;;;4.60;3.00;;;2.80;90.30;;;;;;4898625;29;20189;-72
2021/01/25 11:34:43;;;;;;;3.50;2.57;;;2.90;90.50;;;;;;4903246;29;20047;-71
2021/01/25 11:37:09;;;;;;;4.77;2.47;;;2.90;90.10;;;;;;4896221;29;20039;-72
2021/01/25 11:39:34;;;;;;;6.57;2.27;;;3.00;90.10;;;;;;4903126;29;20024;-71
2021/01/25 11:42:01;;;;;;;4.87;2.50;;;3.00;90.10;;;;;;4889713;29;20025;-72
2021/01/25 11:44:27;;;;;;;3.90;2.03;;;3.10;89.80;;;;;;4880841;29;20501;-72
2021/01/25 11:46:53;;;;;;;4.40;2.23;;;3.10;89.40;;;;;;4912659;29;20135;-72
2021/01/25 11:49:19;;;;;;;4.97;2.37;;;3.20;89.70;;;;;;4915159;29;20395;-72
2021/01/25 11:51:45;;;;;;;3.70;2.03;;;3.40;89.50;;;;;;4892316;29;20033;-71
2021/01/25 11:54:11;;;;;;;3.57;2.23;;;3.40;88.50;;;;;;4890055;29;20457;-71
2021/01/25 11:56:37;;;;;;;3.93;2.20;;;3.60;88.80;;;;;;4886350;29;20165;-72
2021/01/25 11:59:03;;;;;;;2.70;2.00;;;3.70;88.10;;;;;;4902715;29;20113;-71
2021/01/25 12:01:29;;;;;;;2.87;2.30;;;3.80;87.90;;;;;;4911889;29;20089;-71
2021/01/25 12:03:55;;;;;;;2.53;1.83;;;3.80;87.40;;;;;;4888690;29;20418;-71
2021/01/25 12:06:21;;;;;;;4.87;2.20;;;3.80;87.40;;;;;;4908502;29;20040;-71
2021/01/25 12:08:46;;;;;;;3.83;2.40;;;3.80;87.30;;;;;;4884562;29;20036;-73
2021/01/25 12:11:12;;;;;;;4.30;2.67;;;3.70;88.00;;;;;;4885495;29;20364;-71
2021/01/25 12:13:38;;;;;;;3.37;2.30;;;3.70;87.40;;;;;;4893493;29;20020;-72
2021/01/25 12:16:05;;;;;;;3.33;2.80;;;3.60;87.40;;;;;;4889240;29;20531;-73
2021/01/25 12:18:31;;;;;;;4.60;2.60;;;3.60;87.90;;;;;;4903405;29;20061;-72
2021/01/25 12:20:57;;;;;;;5.20;2.57;;;3.50;87.90;;;;;;4896354;29;20063;-72
2021/01/25 12:23:23;;;;;;;5.87;2.67;;;3.40;88.10;;;;;;4882926;29;20508;-73
2021/01/25 12:25:50;;;;;;;4.37;2.73;;;3.40;88.20;;;;;;4894066;29;20043;-72
2021/01/25 12:28:15;;;;;;;4.27;2.60;;;3.40;88.90;;;;;;4897531;29;20033;-74
2021/01/25 12:30:41;;;;;;;4.13;2.80;;;3.30;89.00;;;;;;4906462;29;20036;-73
2021/01/25 12:33:07;;;;;;;5.27;2.77;;;3.30;89.00;;;;;;4914389;29;20020;-73
2021/01/25 12:35:32;;;;;;;5.53;3.03;;;3.40;88.70;;;;;;4897102;29;20032;-72
2021/01/25 12:37:59;;;;;;;5.43;2.37;;;3.40;88.90;;;;;;4908778;29;20467;-75
2021/01/25 12:40:25;;;;;;;3.57;3.10;;;3.60;88.70;;;;;;4875193;29;20079;-73
2021/01/25 12:42:52;;;;;;;3.20;2.70;;;3.60;88.80;;;;;;4890789;29;20454;-73
2021/01/25 12:45:20;;;;;;;4.53;3.07;;;3.70;88.00;;;;;;4895503;29;20028;-73
2021/01/25 12:47:45;;;;;;;7.23;2.83;;;3.80;87.60;;;;;;4907296;29;20039;-74
2021/01/25 12:50:12;;;;;;;4.33;2.83;;;3.70;87.20;;;;;;4905285;29;20044;-73
2021/01/25 12:52:37;;;;;;;4.47;2.63;;;3.80;86.80;;;;;;4893124;29;20060;-73
2021/01/25 12:55:10;;;;;;;3.27;2.70;;;3.70;87.00;;;;;;4883027;29;20071;-73
2021/01/25 12:57:43;;;;;;;4.37;2.70;;;3.70;86.80;;;;;;4905191;29;20462;-73
2021/01/25 13:00:20;;;;;;;7.17;3.00;;;3.70;87.10;;;;;;4898067;29;20482;-74